createdAt,value
2018-03-17T00:00:06.832Z,-0.04
2018-03-17T00:01:06.834Z,0.17
2018-03-17T00:02:06.846Z,0.26
2018-03-17T00:03:06.888Z,0.15
2018-03-17T00:04:06.860Z,0.17
2018-03-17T00:05:06.871Z,0.14
2018-03-17T00:06:06.883Z,0.07
2018-03-17T00:07:06.888Z,0.07
2018-03-17T00:08:06.894Z,-0.01
2018-03-17T00:09:06.905Z,0.13
2018-03-17T00:10:06.912Z,0.11
2018-03-17T00:11:06.918Z,0.13
2018-03-17T00:12:06.930Z,0.28
2018-03-17T00:13:06.938Z,0.20
2018-03-17T00:14:06.946Z,0.07
2018-03-17T00:15:06.955Z,0.04
2018-03-17T00:16:06.966Z,0.03
2018-03-17T00:17:06.969Z,0.03
2018-03-17T00:18:06.989Z,0.11
2018-03-17T00:19:06.987Z,0.03
2018-03-17T00:20:07.003Z,0.04
2018-03-17T00:21:07.010Z,0.03
2018-03-17T00:22:07.022Z,-0.10
2018-03-17T00:23:07.020Z,-0.05
2018-03-17T00:24:07.039Z,-0.01
2018-03-17T00:25:07.037Z,0.03
2018-03-17T00:26:07.047Z,-0.05
2018-03-17T00:27:07.057Z,-0.07
2018-03-17T00:28:07.064Z,-0.05
2018-03-17T00:29:07.078Z,-0.11
2018-03-17T00:30:07.082Z,-0.08
2018-03-17T00:31:07.087Z,-0.15
2018-03-17T00:32:07.097Z,-0.19
2018-03-17T00:33:07.107Z,-0.31
2018-03-17T00:34:07.112Z,-0.21
2018-03-17T00:35:07.122Z,-0.23
2018-03-17T00:36:07.138Z,-0.16
2018-03-17T00:37:07.144Z,-0.26
2018-03-17T00:38:07.149Z,-0.22
2018-03-17T00:39:07.155Z,-0.23
2018-03-17T00:40:07.163Z,-0.22
2018-03-17T00:41:07.172Z,-0.26
2018-03-17T00:42:07.181Z,-0.25
2018-03-17T00:43:07.190Z,-0.18
2018-03-17T00:44:07.198Z,-0.04
2018-03-17T00:45:07.208Z,-0.05
2018-03-17T00:46:07.217Z,-0.05
2018-03-17T00:47:07.224Z,0.03
2018-03-17T00:48:07.231Z,-0.04
2018-03-17T00:49:07.243Z,-0.15
2018-03-17T00:50:07.247Z,-0.28
2018-03-17T00:51:07.255Z,-0.26
2018-03-17T00:52:07.271Z,-0.40
2018-03-17T00:53:07.270Z,-0.31
2018-03-17T00:54:07.285Z,-0.36
2018-03-17T00:55:07.288Z,-0.43
2018-03-17T00:56:07.295Z,-0.28
2018-03-17T00:57:07.306Z,-0.29
2018-03-17T00:58:07.311Z,-0.29
2018-03-17T00:59:07.321Z,-0.39
2018-03-17T01:00:07.332Z,-0.39
2018-03-17T01:01:07.336Z,-0.44
2018-03-17T01:02:07.347Z,-0.40
2018-03-17T01:03:07.354Z,-0.46
2018-03-17T01:04:07.365Z,-0.57
2018-03-17T01:05:07.373Z,-0.52
2018-03-17T01:06:07.378Z,-0.44
2018-03-17T01:07:07.386Z,-0.42
2018-03-17T01:08:07.395Z,-0.29
2018-03-17T01:09:07.410Z,-0.37
2018-03-17T01:10:07.411Z,-0.46
2018-03-17T01:11:07.419Z,-0.51
2018-03-17T01:12:07.428Z,-0.67
2018-03-17T01:13:07.435Z,-0.58
2018-03-17T01:14:07.443Z,-0.64
2018-03-17T01:15:07.449Z,-0.67
2018-03-17T01:16:07.463Z,-0.65
2018-03-17T01:17:07.475Z,-0.55
2018-03-17T01:18:07.484Z,-0.65
2018-03-17T01:19:07.485Z,-0.60
2018-03-17T01:20:07.493Z,-0.52
2018-03-17T01:21:07.505Z,-0.55
2018-03-17T01:22:07.513Z,-0.46
2018-03-17T01:23:07.532Z,-0.57
2018-03-17T01:24:07.522Z,-0.57
2018-03-17T01:25:07.534Z,-0.57
2018-03-17T01:26:07.538Z,-0.62
2018-03-17T01:27:07.547Z,-0.65
2018-03-17T01:28:07.557Z,-0.73
2018-03-17T01:29:07.568Z,-0.70
2018-03-17T01:31:07.580Z,-0.75
2018-03-17T01:32:07.592Z,-0.80
2018-03-17T01:33:07.596Z,-0.86
2018-03-17T01:34:07.612Z,-0.85
2018-03-17T01:35:07.617Z,-0.85
2018-03-17T01:36:07.620Z,-0.91
2018-03-17T01:37:07.643Z,-0.98
2018-03-17T01:38:07.638Z,-0.97
2018-03-17T01:39:07.654Z,-0.94
2018-03-17T01:40:07.655Z,-0.85
2018-03-17T01:41:07.662Z,-0.78
2018-03-17T01:42:07.669Z,-0.80
2018-03-17T01:43:07.676Z,-0.76
2018-03-17T01:44:07.692Z,-0.80
2018-03-17T01:45:07.702Z,-0.92
2018-03-17T01:46:07.700Z,-0.78
2018-03-17T01:47:07.709Z,-0.83
2018-03-17T01:48:07.780Z,-0.95
2018-03-17T01:49:07.726Z,-0.94
2018-03-17T01:50:07.733Z,-0.89
2018-03-17T01:51:07.742Z,-0.85
2018-03-17T01:52:07.751Z,-0.97
2018-03-17T01:53:07.761Z,-0.92
2018-03-17T01:54:07.769Z,-0.94
2018-03-17T01:55:07.793Z,-0.92
2018-03-17T01:56:07.779Z,-0.92
2018-03-17T01:57:07.790Z,-0.94
2018-03-17T01:58:07.797Z,-1.12
2018-03-17T01:59:07.809Z,-1.10
2018-03-17T02:00:07.812Z,-1.09
2018-03-17T02:01:07.820Z,-1.01
2018-03-17T02:02:07.830Z,-0.89
2018-03-17T02:03:07.835Z,-1.10
2018-03-17T02:04:07.852Z,-0.99
2018-03-17T02:05:07.852Z,-1.12
2018-03-17T02:06:07.859Z,-1.10
2018-03-17T02:07:07.866Z,-1.09
2018-03-17T02:08:07.876Z,-1.10
2018-03-17T02:09:07.883Z,-1.07
2018-03-17T02:10:07.891Z,-1.12
2018-03-17T02:11:07.898Z,-1.05
2018-03-17T02:12:07.909Z,-1.05
2018-03-17T02:13:07.913Z,-0.95
2018-03-17T02:14:07.929Z,-0.99
2018-03-17T02:15:07.930Z,-0.89
2018-03-17T02:16:07.940Z,-0.91
2018-03-17T02:17:07.951Z,-1.10
2018-03-17T02:18:07.953Z,-1.10
2018-03-17T02:19:07.963Z,-1.16
2018-03-17T02:20:07.969Z,-1.09
2018-03-17T02:21:07.979Z,-1.23
2018-03-17T02:22:07.986Z,-1.17
2018-03-17T02:23:07.993Z,-1.25
2018-03-17T02:24:07.998Z,-1.31
2018-03-17T02:25:08.009Z,-1.15
2018-03-17T02:26:08.018Z,-1.17
2018-03-17T02:27:08.026Z,-1.27
2018-03-17T02:28:08.032Z,-1.15
2018-03-17T02:29:08.038Z,-1.22
2018-03-17T02:30:08.048Z,-1.28
2018-03-17T02:31:08.055Z,-1.17
2018-03-17T02:32:08.064Z,-1.16
2018-03-17T02:33:08.071Z,-1.19
2018-03-17T02:34:08.079Z,-1.13
2018-03-17T02:35:08.085Z,-1.19
2018-03-17T02:36:08.094Z,-1.17
2018-03-17T02:37:08.104Z,-1.16
2018-03-17T02:38:08.108Z,-1.04
2018-03-17T02:39:08.122Z,-1.16
2018-03-17T02:40:08.124Z,-1.13
2018-03-17T02:41:08.131Z,-1.22
2018-03-17T02:42:08.139Z,-1.15
2018-03-17T02:43:08.145Z,-1.25
2018-03-17T02:44:08.155Z,-1.33
2018-03-17T02:45:08.168Z,-1.28
2018-03-17T02:46:08.172Z,-1.35
2018-03-17T02:47:08.181Z,-1.27
2018-03-17T02:48:08.189Z,-1.17
2018-03-17T02:49:08.192Z,-1.19
2018-03-17T02:50:08.200Z,-1.27
2018-03-17T02:51:08.209Z,-1.22
2018-03-17T02:52:08.226Z,-1.27
2018-03-17T02:53:08.225Z,-1.17
2018-03-17T02:54:08.230Z,-1.09
2018-03-17T02:55:08.240Z,-1.17
2018-03-17T02:56:08.247Z,-1.25
2018-03-17T02:57:08.259Z,-1.27
2018-03-17T02:58:08.265Z,-1.30
2018-03-17T02:59:08.269Z,-1.33
2018-03-17T03:00:08.279Z,-1.27
2018-03-17T03:01:08.296Z,-1.23
2018-03-17T03:02:08.296Z,-1.27
2018-03-17T03:03:08.303Z,-1.43
2018-03-17T03:04:08.314Z,-1.43
2018-03-17T03:05:08.315Z,-1.35
2018-03-17T03:06:08.326Z,-1.38
2018-03-17T03:07:08.332Z,-1.51
2018-03-17T03:08:08.344Z,-1.56
2018-03-17T03:09:08.349Z,-1.58
2018-03-17T03:10:08.355Z,-1.54
2018-03-17T03:11:08.363Z,-1.41
2018-03-17T03:12:08.376Z,-1.45
2018-03-17T03:13:08.378Z,-1.35
2018-03-17T03:14:08.388Z,-1.28
2018-03-17T03:15:08.410Z,-1.40
2018-03-17T03:16:08.402Z,-1.43
2018-03-17T03:17:08.409Z,-1.40
2018-03-17T03:18:08.416Z,-1.40
2018-03-17T03:19:08.426Z,-1.27
2018-03-17T03:20:08.432Z,-1.30
2018-03-17T03:21:08.439Z,-1.28
2018-03-17T03:22:08.449Z,-1.31
2018-03-17T03:23:08.455Z,-1.33
2018-03-17T03:24:08.462Z,-1.28
2018-03-17T03:25:08.472Z,-1.38
2018-03-17T03:26:08.478Z,-1.45
2018-03-17T03:27:08.487Z,-1.46
2018-03-17T03:28:08.501Z,-1.45
2018-03-17T03:29:08.502Z,-1.49
2018-03-17T03:30:08.514Z,-1.49
2018-03-17T03:31:08.521Z,-1.49
2018-03-17T03:32:08.525Z,-1.51
2018-03-17T03:33:08.534Z,-1.51
2018-03-17T03:34:08.547Z,-1.49
2018-03-17T03:35:08.588Z,-1.54
2018-03-17T03:36:08.556Z,-1.51
2018-03-17T03:37:08.566Z,-1.61
2018-03-17T03:38:08.579Z,-1.69
2018-03-17T03:39:08.578Z,-1.56
2018-03-17T03:40:08.587Z,-1.59
2018-03-17T03:41:08.590Z,-1.62
2018-03-17T03:42:08.601Z,-1.66
2018-03-17T03:43:08.606Z,-1.69
2018-03-17T03:44:08.616Z,-1.67
2018-03-17T03:45:08.622Z,-1.56
2018-03-17T03:46:08.632Z,-1.62
2018-03-17T03:47:08.636Z,-1.61
2018-03-17T03:48:08.646Z,-1.62
2018-03-17T03:49:08.654Z,-1.62
2018-03-17T03:50:08.663Z,-1.54
2018-03-17T03:51:08.668Z,-1.58
2018-03-17T03:52:08.705Z,-1.69
2018-03-17T03:53:08.683Z,-1.67
2018-03-17T03:54:08.696Z,-1.72
2018-03-17T03:55:08.717Z,-1.61
2018-03-17T03:56:08.707Z,-1.55
2018-03-17T03:57:08.717Z,-1.61
2018-03-17T03:58:08.724Z,-1.61
2018-03-17T03:59:08.733Z,-1.61
2018-03-17T04:00:08.735Z,-1.59
2018-03-17T04:01:08.748Z,-1.55
2018-03-17T04:02:08.750Z,-1.70
2018-03-17T04:03:08.763Z,-1.80
2018-03-17T04:04:08.771Z,-1.72
2018-03-17T04:05:08.777Z,-1.85
2018-03-17T04:06:08.785Z,-1.85
2018-03-17T04:07:08.790Z,-1.87
2018-03-17T04:08:08.798Z,-1.94
2018-03-17T04:09:08.806Z,-1.87
2018-03-17T04:10:08.811Z,-1.94
2018-03-17T04:11:08.825Z,-1.84
2018-03-17T04:12:08.828Z,-1.79
2018-03-17T04:13:08.835Z,-1.87
2018-03-17T04:14:08.847Z,-1.91
2018-03-17T04:15:08.849Z,-1.82
2018-03-17T04:16:08.857Z,-1.72
2018-03-17T04:17:08.864Z,-1.66
2018-03-17T04:18:08.873Z,-1.72
2018-03-17T04:19:08.878Z,-1.73
2018-03-17T04:20:08.899Z,-1.74
2018-03-17T04:21:08.897Z,-1.84
2018-03-17T04:22:08.903Z,-1.92
2018-03-17T04:23:08.912Z,-2.00
2018-03-17T04:24:08.916Z,-2.00
2018-03-17T04:25:08.928Z,-1.94
2018-03-17T04:26:08.932Z,-1.84
2018-03-17T04:27:08.942Z,-1.95
2018-03-17T04:28:08.947Z,-1.90
2018-03-17T04:29:08.954Z,-1.92
2018-03-17T04:30:08.961Z,-1.92
2018-03-17T04:31:08.969Z,-1.92
2018-03-17T04:32:08.977Z,-1.92
2018-03-17T04:33:08.990Z,-1.91
2018-03-17T04:34:08.995Z,-1.87
2018-03-17T04:35:09.000Z,-1.98
2018-03-17T04:36:09.008Z,-1.92
2018-03-17T04:37:09.014Z,-1.84
2018-03-17T04:38:09.023Z,-1.85
2018-03-17T04:39:09.028Z,-1.90
2018-03-17T04:40:09.040Z,-1.94
2018-03-17T04:41:09.044Z,-1.95
2018-03-17T04:42:09.054Z,-1.87
2018-03-17T04:43:09.072Z,-1.90
2018-03-17T04:44:09.070Z,-1.88
2018-03-17T04:45:09.093Z,-1.91
2018-03-17T04:46:09.081Z,-1.91
2018-03-17T04:47:09.090Z,-1.90
2018-03-17T04:48:09.104Z,-1.87
2018-03-17T04:49:09.105Z,-2.03
2018-03-17T04:50:09.113Z,-1.97
2018-03-17T04:51:09.120Z,-1.97
2018-03-17T04:52:09.129Z,-1.92
2018-03-17T04:53:09.137Z,-2.05
2018-03-17T04:54:09.149Z,-2.12
2018-03-17T04:55:09.151Z,-2.06
2018-03-17T04:56:09.156Z,-2.15
2018-03-17T04:57:09.162Z,-2.10
2018-03-17T04:58:09.173Z,-2.23
2018-03-17T04:59:09.176Z,-2.21
2018-03-17T05:00:09.190Z,-2.06
2018-03-17T05:01:09.197Z,-2.05
2018-03-17T05:02:09.200Z,-2.00
2018-03-17T05:03:09.206Z,-1.95
2018-03-17T05:04:09.215Z,-1.88
2018-03-17T05:05:09.228Z,-1.91
2018-03-17T05:06:09.233Z,-1.85
2018-03-17T05:07:09.241Z,-1.90
2018-03-17T05:08:09.246Z,-1.95
2018-03-17T05:09:09.259Z,-1.88
2018-03-17T05:10:09.281Z,-1.97
2018-03-17T05:11:09.267Z,-1.98
2018-03-17T05:12:09.278Z,-1.88
2018-03-17T05:13:09.293Z,-1.94
2018-03-17T05:14:09.292Z,-2.05
2018-03-17T05:15:09.301Z,-2.00
2018-03-17T05:16:09.307Z,-2.12
2018-03-17T05:17:09.319Z,-2.09
2018-03-17T05:18:09.320Z,-2.23
2018-03-17T05:19:09.328Z,-2.15
2018-03-17T05:20:09.334Z,-2.15
2018-03-17T05:21:09.341Z,-2.21
2018-03-17T05:22:09.351Z,-2.12
2018-03-17T05:23:09.355Z,-2.13
2018-03-17T05:24:09.362Z,-2.13
2018-03-17T05:25:09.374Z,-2.18
2018-03-17T05:26:09.378Z,-2.13
2018-03-17T05:27:09.390Z,-2.30
2018-03-17T05:28:09.401Z,-2.27
2018-03-17T05:29:09.402Z,-2.27
2018-03-17T05:30:09.409Z,-2.32
2018-03-17T05:31:09.417Z,-2.26
2018-03-17T05:32:09.424Z,-2.13
2018-03-17T05:33:09.428Z,-2.12
2018-03-17T05:34:09.439Z,-2.10
2018-03-17T05:35:09.449Z,-2.13
2018-03-17T05:36:09.459Z,-2.16
2018-03-17T05:37:09.461Z,-2.08
2018-03-17T05:38:09.474Z,-2.13
2018-03-17T05:39:09.479Z,-2.06
2018-03-17T05:40:09.493Z,-2.03
2018-03-17T05:41:09.488Z,-2.09
2018-03-17T05:42:09.494Z,-2.05
2018-03-17T05:43:09.502Z,-2.18
2018-03-17T05:44:09.511Z,-2.12
2018-03-17T05:45:09.523Z,-2.21
2018-03-17T05:46:09.524Z,-2.27
2018-03-17T05:47:09.530Z,-2.40
2018-03-17T05:48:09.551Z,-2.32
2018-03-17T05:49:09.544Z,-2.30
2018-03-17T05:50:09.554Z,-2.35
2018-03-17T05:51:09.559Z,-2.20
2018-03-17T05:52:09.572Z,-2.30
2018-03-17T05:53:09.580Z,-2.32
2018-03-17T05:54:09.586Z,-2.21
2018-03-17T05:55:09.591Z,-2.21
2018-03-17T05:56:09.597Z,-2.23
2018-03-17T05:57:09.605Z,-2.24
2018-03-17T05:58:09.618Z,-2.26
2018-03-17T05:59:09.620Z,-2.27
2018-03-17T06:00:09.631Z,-2.42
2018-03-17T06:01:09.635Z,-2.24
2018-03-17T06:02:09.645Z,-2.37
2018-03-17T06:03:09.648Z,-2.40
2018-03-17T06:04:09.657Z,-2.48
2018-03-17T06:05:09.659Z,-2.43
2018-03-17T06:06:09.667Z,-2.30
2018-03-17T06:07:09.675Z,-2.30
2018-03-17T06:08:09.745Z,-2.26
2018-03-17T06:09:09.697Z,-2.24
2018-03-17T06:10:09.697Z,-2.35
2018-03-17T06:11:09.705Z,-2.30
2018-03-17T06:12:09.719Z,-2.39
2018-03-17T06:13:09.719Z,-2.32
2018-03-17T06:14:09.728Z,-2.30
2018-03-17T06:15:09.735Z,-2.29
2018-03-17T06:16:09.743Z,-2.45
2018-03-17T06:17:09.750Z,-2.34
2018-03-17T06:18:09.758Z,-2.45
2018-03-17T06:19:09.764Z,-2.60
2018-03-17T06:20:09.771Z,-2.60
2018-03-17T06:21:09.777Z,-2.55
2018-03-17T06:22:09.789Z,-2.55
2018-03-17T06:23:09.802Z,-2.43
2018-03-17T06:24:09.802Z,-2.39
2018-03-17T06:25:09.812Z,-2.34
2018-03-17T06:26:09.814Z,-2.48
2018-03-17T06:27:09.817Z,-2.34
2018-03-17T06:28:09.819Z,-2.46
2018-03-17T06:29:09.828Z,-2.60
2018-03-17T06:30:09.834Z,-2.56
2018-03-17T06:31:09.845Z,-2.46
2018-03-17T06:32:09.850Z,-2.35
2018-03-17T06:33:09.857Z,-2.39
2018-03-17T06:34:09.870Z,-2.34
2018-03-17T06:35:09.871Z,-2.42
2018-03-17T06:36:09.877Z,-2.39
2018-03-17T06:37:09.884Z,-2.29
2018-03-17T06:38:09.892Z,-2.29
2018-03-17T06:39:09.899Z,-2.39
2018-03-17T06:40:09.906Z,-2.52
2018-03-17T06:41:09.913Z,-2.39
2018-03-17T06:42:09.922Z,-2.50
2018-03-17T06:43:09.928Z,-2.56
2018-03-17T06:44:09.939Z,-2.39
2018-03-17T06:45:09.946Z,-2.45
2018-03-17T06:46:09.950Z,-2.23
2018-03-17T06:47:09.956Z,-2.30
2018-03-17T06:48:09.965Z,-2.18
2018-03-17T06:49:09.979Z,-2.32
2018-03-17T06:50:09.981Z,-2.32
2018-03-17T06:51:09.986Z,-2.29
2018-03-17T06:52:09.995Z,-2.32
2018-03-17T06:53:10.004Z,-2.34
2018-03-17T06:54:10.032Z,-2.39
2018-03-17T06:55:10.040Z,-2.40
2018-03-17T06:56:10.020Z,-2.40
2018-03-17T06:57:10.028Z,-2.29
2018-03-17T06:58:10.037Z,-2.39
2018-03-17T06:59:10.042Z,-2.30
2018-03-17T07:00:10.050Z,-2.37
2018-03-17T07:01:10.061Z,-2.37
2018-03-17T07:02:10.070Z,-2.39
2018-03-17T07:03:10.078Z,-2.45
2018-03-17T07:04:10.080Z,-2.46
2018-03-17T07:05:10.089Z,-2.39
2018-03-17T07:06:10.096Z,-2.30
2018-03-17T07:07:10.103Z,-2.29
2018-03-17T07:08:10.109Z,-2.46
2018-03-17T07:09:10.118Z,-2.49
2018-03-17T07:10:10.125Z,-2.58
2018-03-17T07:11:10.130Z,-2.48
2018-03-17T07:12:10.141Z,-2.60
2018-03-17T07:13:10.145Z,-2.56
2018-03-17T07:14:10.154Z,-2.49
2018-03-17T07:15:10.159Z,-2.46
2018-03-17T07:16:10.166Z,-2.49
2018-03-17T07:17:10.175Z,-2.49
2018-03-17T07:18:10.181Z,-2.42
2018-03-17T07:19:10.237Z,-2.35
2018-03-17T07:20:10.194Z,-2.45
2018-03-17T07:21:10.203Z,-2.45
2018-03-17T07:22:10.210Z,-2.34
2018-03-17T07:23:10.224Z,-2.32
2018-03-17T07:24:10.226Z,-2.34
2018-03-17T07:25:10.238Z,-2.35
2018-03-17T07:26:10.243Z,-2.37
2018-03-17T07:27:10.245Z,-2.49
2018-03-17T07:28:10.257Z,-2.55
2018-03-17T07:29:10.260Z,-2.52
2018-03-17T07:30:10.270Z,-2.30
2018-03-17T07:31:10.274Z,-2.55
2018-03-17T07:32:10.283Z,-2.30
2018-03-17T07:33:10.289Z,-2.29
2018-03-17T07:34:10.298Z,-2.42
2018-03-17T07:35:10.306Z,-2.40
2018-03-17T07:36:10.326Z,-2.48
2018-03-17T07:37:10.319Z,-2.34
2018-03-17T07:38:10.327Z,-2.26
2018-03-17T07:39:10.337Z,-2.27
2018-03-17T07:40:10.346Z,-2.39
2018-03-17T07:41:10.349Z,-2.35
2018-03-17T07:42:10.356Z,-2.35
2018-03-17T07:43:10.362Z,-2.37
2018-03-17T07:44:10.373Z,-2.46
2018-03-17T07:45:10.376Z,-2.32
2018-03-17T07:46:10.385Z,-2.35
2018-03-17T07:47:10.392Z,-2.37
2018-03-17T07:48:10.397Z,-2.30
2018-03-17T07:49:10.413Z,-2.45
2018-03-17T07:50:10.421Z,-2.42
2018-03-17T07:51:10.420Z,-2.37
2018-03-17T07:52:10.428Z,-2.32
2018-03-17T07:53:10.433Z,-2.27
2018-03-17T07:54:10.450Z,-2.21
2018-03-17T07:55:10.453Z,-2.21
2018-03-17T07:56:10.456Z,-2.23
2018-03-17T07:57:10.466Z,-2.20
2018-03-17T07:58:10.471Z,-2.09
2018-03-17T07:59:10.482Z,-2.09
2018-03-17T08:00:10.486Z,-2.08
2018-03-17T08:01:10.502Z,-1.97
2018-03-17T08:02:10.504Z,-2.09
2018-03-17T08:03:10.507Z,-2.10
2018-03-17T08:04:10.517Z,-2.13
2018-03-17T08:05:10.530Z,-2.08
2018-03-17T08:06:10.532Z,-2.02
2018-03-17T08:07:10.539Z,-2.02
2018-03-17T08:08:10.552Z,-1.97
2018-03-17T08:09:10.553Z,-1.90
2018-03-17T08:10:10.566Z,-1.92
2018-03-17T08:11:10.570Z,-1.91
2018-03-17T08:12:10.581Z,-1.95
2018-03-17T08:13:10.588Z,-2.13
2018-03-17T08:14:10.593Z,-2.23
2018-03-17T08:15:10.601Z,-2.23
2018-03-17T08:16:10.609Z,-2.21
2018-03-17T08:17:10.615Z,-2.18
2018-03-17T08:18:10.625Z,-2.18
2018-03-17T08:19:10.633Z,-2.06
2018-03-17T08:20:10.640Z,-2.32
2018-03-17T08:21:10.648Z,-2.16
2018-03-17T08:22:10.671Z,-2.16
2018-03-17T08:23:10.661Z,-2.18
2018-03-17T08:24:10.669Z,-2.18
2018-03-17T08:25:10.706Z,-2.05
2018-03-17T08:26:10.684Z,-2.16
2018-03-17T08:27:10.696Z,-2.10
2018-03-17T08:28:10.705Z,-2.06
2018-03-17T08:29:10.704Z,-2.09
2018-03-17T08:30:10.714Z,-2.06
2018-03-17T08:31:10.724Z,-2.13
2018-03-17T08:32:10.727Z,-2.05
2018-03-17T08:33:10.736Z,-1.94
2018-03-17T08:34:10.787Z,-1.97
2018-03-17T08:35:10.753Z,-1.91
2018-03-17T08:36:10.762Z,-1.85
2018-03-17T08:37:10.768Z,-1.87
2018-03-17T08:38:10.779Z,-1.88
2018-03-17T08:39:10.782Z,-1.94
2018-03-17T08:40:10.791Z,-2.00
2018-03-17T08:41:10.800Z,-1.98
2018-03-17T08:42:10.805Z,-1.92
2018-03-17T08:43:10.813Z,-1.88
2018-03-17T08:44:10.820Z,-1.94
2018-03-17T08:45:10.829Z,-1.98
2018-03-17T08:46:10.842Z,-2.02
2018-03-17T08:47:10.845Z,-1.94
2018-03-17T08:48:10.857Z,-1.87
2018-03-17T08:49:10.859Z,-1.92
2018-03-17T08:50:10.870Z,-2.06
2018-03-17T08:51:10.875Z,-2.08
2018-03-17T08:52:10.884Z,-2.00
2018-03-17T08:53:10.899Z,-1.97
2018-03-17T08:54:10.899Z,-2.09
2018-03-17T08:55:10.910Z,-1.97
2018-03-17T08:56:10.914Z,-2.00
2018-03-17T08:57:10.925Z,-1.91
2018-03-17T08:58:10.933Z,-1.92
2018-03-17T08:59:10.936Z,-1.98
2018-03-17T09:00:10.944Z,-1.92
2018-03-17T09:02:10.961Z,-1.95
2018-03-17T09:03:10.974Z,-1.97
2018-03-17T09:04:10.978Z,-1.92
2018-03-17T09:05:10.987Z,-1.98
2018-03-17T09:06:10.992Z,-1.97
2018-03-17T09:07:11.000Z,-1.91
2018-03-17T09:08:11.009Z,-1.95
2018-03-17T09:09:11.023Z,-1.84
2018-03-17T09:10:11.028Z,-1.92
2018-03-17T09:11:11.137Z,-1.67
2018-03-17T09:12:11.076Z,-1.61
2018-03-17T09:13:11.048Z,-1.64
2018-03-17T09:14:11.056Z,-1.61
2018-03-17T09:15:11.067Z,-1.62
2018-03-17T09:16:11.074Z,-1.88
2018-03-17T09:17:11.083Z,-1.82
2018-03-17T09:18:11.088Z,-1.77
2018-03-17T09:19:11.102Z,-1.74
2018-03-17T09:20:11.109Z,-1.80
2018-03-17T09:21:11.116Z,-1.80
2018-03-17T09:22:11.119Z,-1.88
2018-03-17T09:23:11.128Z,-1.90
2018-03-17T09:24:11.141Z,-1.88
2018-03-17T09:25:11.144Z,-1.80
2018-03-17T09:26:11.152Z,-1.91
2018-03-17T09:27:11.158Z,-1.95
2018-03-17T09:28:11.168Z,-2.00
2018-03-17T09:29:11.173Z,-1.92
2018-03-17T09:30:11.185Z,-2.03
2018-03-17T09:31:11.190Z,-1.85
2018-03-17T09:32:11.203Z,-1.97
2018-03-17T09:33:11.209Z,-1.76
2018-03-17T09:34:11.215Z,-1.76
2018-03-17T09:35:11.222Z,-1.70
2018-03-17T09:36:11.232Z,-1.67
2018-03-17T09:37:11.240Z,-1.73
2018-03-17T09:38:11.246Z,-1.95
2018-03-17T09:39:11.253Z,-1.97
2018-03-17T09:40:11.263Z,-1.90
2018-03-17T09:41:11.272Z,-1.77
2018-03-17T09:42:11.316Z,-1.73
2018-03-17T09:43:11.288Z,-1.85
2018-03-17T09:44:11.298Z,-1.64
2018-03-17T09:45:11.305Z,-1.55
2018-03-17T09:46:11.310Z,-1.49
2018-03-17T09:47:11.321Z,-1.62
2018-03-17T09:48:11.325Z,-1.67
2018-03-17T09:49:11.334Z,-1.69
2018-03-17T09:50:11.343Z,-1.73
2018-03-17T09:51:11.351Z,-1.67
2018-03-17T09:52:11.391Z,-1.59
2018-03-17T09:53:11.368Z,-1.52
2018-03-17T09:54:11.376Z,-1.49
2018-03-17T09:55:11.386Z,-1.79
2018-03-17T09:56:11.397Z,-1.90
2018-03-17T09:57:11.444Z,-1.64
2018-03-17T09:58:11.408Z,-1.62
2018-03-17T09:59:11.416Z,-1.66
2018-03-17T10:00:11.435Z,-1.61
2018-03-17T10:01:11.432Z,-1.66
2018-03-17T10:02:11.441Z,-1.56
2018-03-17T10:03:11.460Z,-1.66
2018-03-17T10:04:11.454Z,-1.64
2018-03-17T10:05:11.463Z,-1.62
2018-03-17T10:06:11.475Z,-1.58
2018-03-17T10:07:11.479Z,-1.61
2018-03-17T10:08:11.488Z,-1.72
2018-03-17T10:09:11.498Z,-1.58
2018-03-17T10:10:11.506Z,-1.66
2018-03-17T10:11:11.512Z,-1.72
2018-03-17T10:12:11.521Z,-1.80
2018-03-17T10:13:11.530Z,-1.84
2018-03-17T10:14:11.540Z,-1.67
2018-03-17T10:15:11.547Z,-1.67
2018-03-17T10:16:11.557Z,-1.61
2018-03-17T10:17:11.563Z,-1.64
2018-03-17T10:18:11.571Z,-1.48
2018-03-17T10:19:11.578Z,-1.45
2018-03-17T10:20:11.593Z,-1.38
2018-03-17T10:21:11.606Z,-1.43
2018-03-17T10:22:11.612Z,-1.67
2018-03-17T10:23:11.611Z,-1.77
2018-03-17T10:24:11.622Z,-1.67
2018-03-17T10:25:11.634Z,-1.69
2018-03-17T10:26:11.634Z,-1.58
2018-03-17T10:27:11.644Z,-1.61
2018-03-17T10:28:11.652Z,-1.67
2018-03-17T10:29:11.659Z,-1.73
2018-03-17T10:30:11.665Z,-1.69
2018-03-17T10:31:11.674Z,-1.55
2018-03-17T10:32:11.687Z,-1.69
2018-03-17T10:33:11.694Z,-1.69
2018-03-17T10:34:11.700Z,-1.77
2018-03-17T10:35:11.712Z,-1.84
2018-03-17T10:36:11.719Z,-1.64
2018-03-17T10:37:11.731Z,-1.61
2018-03-17T10:38:11.733Z,-1.59
2018-03-17T10:39:11.741Z,-1.48
2018-03-17T10:40:11.748Z,-1.48
2018-03-17T10:41:11.764Z,-1.40
2018-03-17T10:42:11.766Z,-1.52
2018-03-17T10:43:11.772Z,-1.55
2018-03-17T10:44:11.780Z,-1.40
2018-03-17T10:45:11.789Z,-1.41
2018-03-17T10:46:11.799Z,-1.49
2018-03-17T10:47:11.806Z,-1.48
2018-03-17T10:48:11.814Z,-1.40
2018-03-17T10:49:11.824Z,-1.38
2018-03-17T10:50:11.829Z,-1.35
2018-03-17T10:51:11.842Z,-1.27
2018-03-17T10:52:11.846Z,-1.41
2018-03-17T10:53:11.856Z,-1.41
2018-03-17T10:54:11.865Z,-1.38
2018-03-17T10:55:11.875Z,-1.27
2018-03-17T10:56:11.885Z,-1.23
2018-03-17T10:57:11.889Z,-1.23
2018-03-17T10:58:11.902Z,-1.34
2018-03-17T10:59:11.905Z,-1.23
2018-03-17T11:00:11.923Z,-1.28
2018-03-17T11:01:11.932Z,-1.28
2018-03-17T11:02:11.931Z,-1.33
2018-03-17T11:03:11.953Z,-1.35
2018-03-17T11:04:11.950Z,-1.43
2018-03-17T11:05:11.955Z,-1.33
2018-03-17T11:06:11.973Z,-1.07
2018-03-17T11:07:11.973Z,-1.15
2018-03-17T11:08:11.980Z,-1.30
2018-03-17T11:09:11.989Z,-1.20
2018-03-17T11:10:12.020Z,-1.15
2018-03-17T11:11:12.007Z,-1.37
2018-03-17T11:12:12.016Z,-1.49
2018-03-17T11:13:12.025Z,-1.51
2018-03-17T11:14:12.030Z,-1.70
2018-03-17T11:15:12.038Z,-1.73
2018-03-17T11:16:12.050Z,-1.51
2018-03-17T11:17:12.064Z,-1.55
2018-03-17T11:18:12.122Z,-1.48
2018-03-17T11:19:12.076Z,-1.41
2018-03-17T11:20:12.082Z,-1.51
2018-03-17T11:21:12.240Z,-1.46
2018-03-17T11:22:12.114Z,-1.35
2018-03-17T11:23:12.109Z,-1.37
2018-03-17T11:24:12.114Z,-1.33
2018-03-17T11:25:12.123Z,-1.31
2018-03-17T11:26:12.133Z,-1.37
2018-03-17T11:27:12.140Z,-1.20
2018-03-17T11:28:12.147Z,-1.09
2018-03-17T11:29:12.164Z,-0.94
2018-03-17T11:30:12.167Z,-1.05
2018-03-17T11:32:12.185Z,-1.10
2018-03-17T11:33:12.195Z,-1.13
2018-03-17T11:34:12.218Z,-1.17
2018-03-17T11:35:12.215Z,-1.31
2018-03-17T11:36:12.277Z,-1.15
2018-03-17T11:37:12.224Z,-1.19
2018-03-17T11:38:12.394Z,-1.30
2018-03-17T11:39:12.245Z,-1.43
2018-03-17T11:40:12.416Z,-1.41
2018-03-17T11:41:12.263Z,-1.25
2018-03-17T11:42:12.275Z,-1.12
2018-03-17T11:43:12.285Z,-1.09
2018-03-17T11:44:12.294Z,-0.91
2018-03-17T11:45:12.298Z,-0.89
2018-03-17T11:46:12.306Z,-0.69
2018-03-17T11:47:12.319Z,-0.83
2018-03-17T11:48:12.326Z,-0.82
2018-03-17T11:49:12.330Z,-0.79
2018-03-17T11:50:12.360Z,-0.75
2018-03-17T11:51:12.363Z,-0.89
2018-03-17T11:52:12.363Z,-0.95
2018-03-17T11:53:12.367Z,-0.99
2018-03-17T11:54:12.390Z,-0.91
2018-03-17T11:55:12.385Z,-0.83
2018-03-17T11:56:12.394Z,-0.79
2018-03-17T11:57:12.400Z,-0.91
2018-03-17T11:58:12.503Z,-0.86
2018-03-17T11:59:12.419Z,-0.75
2018-03-17T12:00:12.449Z,-0.82
2018-03-17T12:01:12.438Z,-0.67
2018-03-17T12:02:12.446Z,-0.79
2018-03-17T12:03:12.457Z,-0.82
2018-03-17T12:04:12.465Z,-0.89
2018-03-17T12:05:12.476Z,-0.86
2018-03-17T12:06:12.486Z,-0.82
2018-03-17T12:07:12.492Z,-0.61
2018-03-17T12:08:12.500Z,-0.33
2018-03-17T12:09:12.517Z,-0.40
2018-03-17T12:10:12.523Z,-0.62
2018-03-17T12:11:12.529Z,-0.46
2018-03-17T12:12:12.535Z,-0.42
2018-03-17T12:13:12.566Z,-0.46
2018-03-17T12:14:12.554Z,-0.60
2018-03-17T12:15:12.564Z,-0.61
2018-03-17T12:16:12.571Z,-0.76
2018-03-17T12:17:12.585Z,-0.69
2018-03-17T12:18:12.590Z,-0.70
2018-03-17T12:19:12.598Z,-0.78
2018-03-17T12:20:12.610Z,-0.70
2018-03-17T12:21:12.618Z,-0.75
2018-03-17T12:22:12.629Z,-0.86
2018-03-17T12:23:12.633Z,-0.92
2018-03-17T12:24:12.645Z,-0.94
2018-03-17T12:25:12.755Z,-0.85
2018-03-17T12:26:12.664Z,-0.67
2018-03-17T12:27:12.671Z,-0.85
2018-03-17T12:28:12.680Z,-0.97
2018-03-17T12:29:12.688Z,-0.91
2018-03-17T12:30:12.694Z,-0.86
2018-03-17T12:31:12.707Z,-0.83
2018-03-17T12:32:12.720Z,-0.80
2018-03-17T12:33:12.730Z,-0.57
2018-03-17T12:34:12.747Z,-0.51
2018-03-17T12:35:12.747Z,-0.44
2018-03-17T12:36:12.760Z,-0.43
2018-03-17T12:37:12.762Z,-0.55
2018-03-17T12:38:12.768Z,-0.51
2018-03-17T12:39:12.790Z,-0.37
2018-03-17T12:40:12.786Z,-0.37
2018-03-17T12:41:12.806Z,-0.29
2018-03-17T12:42:12.806Z,-0.14
2018-03-17T12:43:12.812Z,-0.28
2018-03-17T12:44:12.820Z,-0.10
2018-03-17T12:45:12.831Z,-0.05
2018-03-17T12:46:12.839Z,0.11
2018-03-17T12:47:12.856Z,0.18
2018-03-17T12:48:12.860Z,0.08
2018-03-17T12:49:12.870Z,-0.04
2018-03-17T12:50:12.880Z,0.11
2018-03-17T12:51:12.886Z,0.29
2018-03-17T12:52:12.897Z,0.23
2018-03-17T12:53:12.908Z,0.24
2018-03-17T12:54:12.916Z,0.17
2018-03-17T12:55:12.925Z,0.08
2018-03-17T12:56:12.954Z,0.13